This is the latest recevied weather packets stored in our database for station/object DM3FAM-10. If no packets are shown the sender has not sent any weather packets the latest 10 day(s).
| Time | Temp. | Humidity | Pressure | Rain* | Wind** | Luminosity | Snow |
|---|---|---|---|---|---|---|---|
| 1777684302 | 6.67° C | 100% | 973.5 hPa | - | - | - | - |
| 1777683402 | 6.67° C | 100% | 973.5 hPa | - | - | - | - |
| 1777682502 | 6.67° C | 100% | 973.7 hPa | - | - | - | - |
| 1777681602 | 7.22° C | 100% | 973.6 hPa | - | - | - | - |
| 1777680702 | 7.22° C | 100% | 973.8 hPa | - | - | - | - |
| 1777679802 | 6.67° C | 100% | 973.9 hPa | - | - | - | - |
| 1777678902 | 6.11° C | 100% | 974 hPa | - | - | - | - |
| 1777678002 | 6.67° C | 100% | 974 hPa | - | - | - | - |
| 1777677102 | 6.67° C | 99% | 974.1 hPa | - | - | - | - |
| 1777676202 | 7.22° C | 99% | 974.1 hPa | - | - | - | - |
| 1777675301 | 7.22° C | 97% | 974.1 hPa | - | - | - | - |
| 1777674402 | 7.22° C | 94% | 974.1 hPa | - | - | - | - |
| 1777673501 | 7.78° C | 91% | 974.1 hPa | - | - | - | - |
| 1777672601 | 8.33° C | 90% | 974 hPa | - | - | - | - |
| 1777671701 | 7.78° C | 92% | 974 hPa | - | - | - | - |
| 1777670801 | 7.22° C | 100% | 974.1 hPa | - | - | - | - |
| 1777669901 | 7.78° C | 94% | 973.9 hPa | - | - | - | - |
| 1777669001 | 8.33° C | 91% | 974 hPa | - | - | - | - |
| 1777668101 | 8.33° C | 94% | 974 hPa | - | - | - | - |
| 1777667201 | 8.89° C | 91% | 973.8 hPa | - | - | - | - |
| 1777666301 | 9.44° C | 88% | 974 hPa | - | - | - | - |
| 1777665401 | 10° C | 88% | 973.9 hPa | - | - | - | - |
| 1777664501 | 10.56° C | 86% | 973.8 hPa | - | - | - | - |
| 1777663601 | 10.56° C | 89% | 973.6 hPa | - | - | - | - |
| 1777662701 | 11.67° C | 83% | 973.7 hPa | - | - | - | - |
* Rain since midnight (hover to see other rain measurements)
** Current wind speed in m/s (hover to see current wind gust speed)